createdAt,value
2019-03-17T00:00:32.351Z,9.15
2019-03-17T00:01:32.345Z,9.24
2019-03-17T00:02:32.330Z,9.20
2019-03-17T00:03:32.320Z,9.31
2019-03-17T00:04:32.320Z,9.31
2019-03-17T00:05:32.297Z,9.31
2019-03-17T00:06:32.292Z,9.31
2019-03-17T00:07:32.276Z,9.21
2019-03-17T00:08:32.266Z,9.21
2019-03-17T00:09:32.254Z,9.14
2019-03-17T00:10:32.247Z,9.18
2019-03-17T00:11:32.237Z,9.17
2019-03-17T00:12:32.226Z,9.18
2019-03-17T00:13:32.215Z,9.24
2019-03-17T00:14:32.205Z,9.15
2019-03-17T00:15:32.192Z,9.15
2019-03-17T00:16:32.200Z,9.20
2019-03-17T00:17:32.174Z,9.18
2019-03-17T00:18:32.158Z,9.23
2019-03-17T00:19:32.150Z,9.31
2019-03-17T00:20:32.136Z,9.32
2019-03-17T00:21:32.127Z,9.24
2019-03-17T00:22:32.115Z,9.33
2019-03-17T00:23:32.107Z,9.33
2019-03-17T00:24:32.093Z,9.13
2019-03-17T00:25:32.084Z,9.24
2019-03-17T00:26:32.072Z,9.15
2019-03-17T00:27:32.094Z,9.18
2019-03-17T00:28:32.054Z,9.23
2019-03-17T00:29:32.040Z,9.13
2019-03-17T00:30:32.027Z,9.24
2019-03-17T00:31:32.018Z,9.26
2019-03-17T00:32:32.007Z,9.33
2019-03-17T00:33:31.995Z,9.26
2019-03-17T00:34:43.489Z,9.21
2019-03-17T00:35:32.974Z,9.21
2019-03-17T00:36:31.965Z,9.33
2019-03-17T00:37:31.953Z,9.21
2019-03-17T00:38:31.942Z,9.17
2019-03-17T00:39:31.931Z,9.20
2019-03-17T00:40:31.924Z,9.28
2019-03-17T00:41:31.926Z,9.35
2019-03-17T00:42:31.899Z,9.31
2019-03-17T00:43:31.890Z,9.14
2019-03-17T00:44:31.878Z,9.20
2019-03-17T00:45:31.867Z,9.24
2019-03-17T00:46:31.856Z,9.23
2019-03-17T00:47:31.846Z,9.14
2019-03-17T00:48:31.834Z,9.21
2019-03-17T00:49:31.825Z,9.24
2019-03-17T00:50:31.814Z,9.15
2019-03-17T00:51:31.802Z,9.23
2019-03-17T00:52:31.794Z,9.31
2019-03-17T00:53:31.781Z,9.31
2019-03-17T00:54:31.774Z,9.24
2019-03-17T00:55:31.760Z,9.17
2019-03-17T00:56:31.752Z,9.17
2019-03-17T00:57:31.738Z,9.18
2019-03-17T00:58:31.734Z,9.21
2019-03-17T00:59:31.717Z,9.13
2019-03-17T01:00:31.709Z,9.13
2019-03-17T01:01:31.698Z,9.18
2019-03-17T01:02:31.685Z,9.17
2019-03-17T01:03:31.674Z,9.15
2019-03-17T01:04:31.672Z,9.17
2019-03-17T01:05:31.669Z,9.24
2019-03-17T01:06:31.643Z,9.17
2019-03-17T01:07:31.633Z,9.26
2019-03-17T01:08:31.625Z,9.20
2019-03-17T01:09:31.612Z,9.28
2019-03-17T01:10:31.598Z,9.32
2019-03-17T01:11:31.591Z,9.26
2019-03-17T01:12:31.576Z,9.17
2019-03-17T01:13:31.565Z,9.17
2019-03-17T01:14:31.556Z,9.24
2019-03-17T01:15:31.545Z,9.21
2019-03-17T01:16:31.538Z,9.29
2019-03-17T01:17:31.523Z,9.18
2019-03-17T01:18:31.512Z,9.23
2019-03-17T01:19:31.504Z,9.28
2019-03-17T01:20:31.491Z,9.20
2019-03-17T01:21:31.480Z,9.14
2019-03-17T01:22:31.474Z,9.14
2019-03-17T01:23:31.460Z,9.18
2019-03-17T01:24:31.459Z,9.17
2019-03-17T01:25:31.437Z,9.23
2019-03-17T01:26:31.427Z,9.20
2019-03-17T01:27:31.417Z,9.11
2019-03-17T01:28:31.405Z,9.15
2019-03-17T01:29:31.394Z,9.18
2019-03-17T01:30:31.391Z,9.18
2019-03-17T01:31:31.373Z,9.17
2019-03-17T01:32:31.363Z,9.17
2019-03-17T01:33:31.354Z,9.23
2019-03-17T01:34:31.343Z,9.21
2019-03-17T01:35:32.651Z,9.28
2019-03-17T01:36:31.319Z,9.23
2019-03-17T01:37:31.308Z,9.15
2019-03-17T01:38:31.298Z,9.14
2019-03-17T01:39:31.295Z,9.13
2019-03-17T01:40:31.275Z,9.18
2019-03-17T01:41:31.265Z,9.13
2019-03-17T01:42:31.256Z,9.14
2019-03-17T01:43:31.243Z,9.05
2019-03-17T01:44:31.234Z,9.05
2019-03-17T01:45:31.222Z,9.11
2019-03-17T01:46:31.211Z,9.11
2019-03-17T01:47:31.207Z,9.17
2019-03-17T01:48:31.191Z,9.10
2019-03-17T01:49:31.182Z,9.14
2019-03-17T01:50:31.169Z,9.24
2019-03-17T01:51:31.157Z,9.17
2019-03-17T01:52:31.148Z,9.13
2019-03-17T01:53:31.136Z,9.11
2019-03-17T01:54:31.124Z,9.13
2019-03-17T01:55:31.118Z,9.14
2019-03-17T01:56:31.104Z,9.17
2019-03-17T01:57:31.096Z,9.15
2019-03-17T01:58:31.083Z,9.10
2019-03-17T01:59:31.072Z,9.05
2019-03-17T02:00:31.062Z,9.13
2019-03-17T02:01:31.052Z,9.11
2019-03-17T02:02:31.047Z,9.10
2019-03-17T02:03:31.029Z,9.10
2019-03-17T02:04:31.023Z,9.21
2019-03-17T02:05:31.010Z,9.20
2019-03-17T02:06:31.000Z,9.14
2019-03-17T02:07:30.987Z,9.14
2019-03-17T02:08:30.976Z,9.17
2019-03-17T02:09:30.965Z,9.18
2019-03-17T02:10:30.957Z,9.24
2019-03-17T02:11:30.944Z,9.17
2019-03-17T02:12:30.935Z,9.17
2019-03-17T02:13:30.926Z,9.14
2019-03-17T02:14:30.915Z,9.26
2019-03-17T02:15:30.903Z,9.18
2019-03-17T02:16:30.901Z,9.24
2019-03-17T02:17:30.880Z,9.32
2019-03-17T02:18:30.896Z,9.24
2019-03-17T02:19:30.858Z,9.20
2019-03-17T02:20:30.853Z,9.26
2019-03-17T02:21:30.839Z,9.32
2019-03-17T02:22:30.890Z,9.26
2019-03-17T02:23:30.820Z,9.29
2019-03-17T02:24:30.805Z,9.29
2019-03-17T02:25:30.793Z,9.26
2019-03-17T02:26:30.794Z,9.31
2019-03-17T02:27:30.773Z,9.29
2019-03-17T02:28:30.762Z,9.40
2019-03-17T02:29:30.754Z,9.39
2019-03-17T02:30:30.747Z,9.32
2019-03-17T02:31:30.732Z,9.38
2019-03-17T02:32:30.723Z,9.36
2019-03-17T02:33:30.709Z,9.38
2019-03-17T02:34:30.700Z,9.39
2019-03-17T02:35:38.647Z,9.32
2019-03-17T02:36:31.679Z,9.32
2019-03-17T02:37:30.666Z,9.43
2019-03-17T02:38:30.659Z,9.35
2019-03-17T02:39:30.645Z,9.40
2019-03-17T02:40:30.634Z,9.33
2019-03-17T02:41:30.634Z,9.35
2019-03-17T02:42:30.613Z,9.31
2019-03-17T02:43:30.614Z,9.39
2019-03-17T02:44:30.602Z,9.40
2019-03-17T02:45:30.591Z,9.36
2019-03-17T02:46:30.571Z,9.39
2019-03-17T02:47:30.561Z,9.33
2019-03-17T02:48:30.551Z,9.36
2019-03-17T02:49:30.543Z,9.33
2019-03-17T02:50:30.529Z,9.35
2019-03-17T02:51:30.517Z,9.35
2019-03-17T02:52:30.510Z,9.35
2019-03-17T02:53:30.496Z,9.32
2019-03-17T02:54:30.485Z,9.33
2019-03-17T02:55:30.475Z,9.38
2019-03-17T02:56:30.467Z,9.35
2019-03-17T02:57:30.453Z,9.38
2019-03-17T02:58:30.442Z,9.42
2019-03-17T02:59:30.432Z,9.40
2019-03-17T03:00:30.424Z,9.39
2019-03-17T03:01:30.413Z,9.38
2019-03-17T03:02:30.400Z,9.36
2019-03-17T03:03:30.390Z,9.31
2019-03-17T03:04:30.378Z,9.38
2019-03-17T03:05:30.372Z,9.38
2019-03-17T03:06:30.357Z,9.40
2019-03-17T03:07:30.354Z,9.29
2019-03-17T03:08:30.335Z,9.36
2019-03-17T03:09:30.326Z,9.35
2019-03-17T03:10:32.101Z,9.32
2019-03-17T03:11:30.308Z,9.39
2019-03-17T03:12:30.292Z,9.40
2019-03-17T03:13:30.345Z,9.38
2019-03-17T03:14:30.271Z,9.40
2019-03-17T03:15:30.261Z,9.38
2019-03-17T03:16:30.262Z,9.42
2019-03-17T03:17:30.240Z,9.38
2019-03-17T03:18:30.234Z,9.39
2019-03-17T03:19:30.216Z,9.39
2019-03-17T03:20:30.230Z,9.36
2019-03-17T03:21:30.195Z,9.33
2019-03-17T03:22:30.185Z,9.31
2019-03-17T03:23:30.174Z,9.31
2019-03-17T03:24:30.163Z,9.32
2019-03-17T03:25:30.170Z,9.24
2019-03-17T03:26:30.151Z,9.26
2019-03-17T03:27:30.134Z,9.28
2019-03-17T03:28:30.145Z,9.26
2019-03-17T03:29:30.114Z,9.24
2019-03-17T03:30:30.105Z,9.18
2019-03-17T03:31:30.200Z,9.23
2019-03-17T03:32:30.084Z,9.23
2019-03-17T03:33:30.079Z,9.13
2019-03-17T03:34:30.060Z,9.17
2019-03-17T03:35:30.047Z,9.24
2019-03-17T03:36:30.037Z,9.20
2019-03-17T03:37:30.026Z,9.24
2019-03-17T03:38:30.014Z,9.18
2019-03-17T03:39:30.002Z,9.17
2019-03-17T03:40:29.991Z,9.17
2019-03-17T03:41:30.002Z,9.17
2019-03-17T03:42:29.972Z,9.18
2019-03-17T03:43:29.961Z,9.23
2019-03-17T03:44:29.954Z,9.20
2019-03-17T03:45:29.944Z,9.31
2019-03-17T03:46:29.926Z,9.13
2019-03-17T03:47:29.927Z,9.21
2019-03-17T03:48:29.918Z,9.21
2019-03-17T03:49:29.899Z,9.18
2019-03-17T03:50:29.883Z,9.15
2019-03-17T03:51:29.874Z,9.13
2019-03-17T03:52:29.864Z,9.13
2019-03-17T03:53:29.851Z,9.10
2019-03-17T03:54:29.851Z,9.05
2019-03-17T03:55:29.831Z,9.02
2019-03-17T03:56:29.823Z,9.11
2019-03-17T03:57:29.809Z,9.10
2019-03-17T03:58:29.799Z,9.04
2019-03-17T03:59:29.788Z,9.08
2019-03-17T04:00:29.776Z,8.96
2019-03-17T04:01:29.766Z,8.96
2019-03-17T04:02:29.756Z,8.99
2019-03-17T04:03:29.748Z,8.87
2019-03-17T04:04:29.736Z,8.83
2019-03-17T04:05:32.704Z,8.91
2019-03-17T04:06:29.715Z,8.86
2019-03-17T04:07:29.710Z,8.79
2019-03-17T04:08:29.691Z,8.80
2019-03-17T04:09:29.691Z,8.79
2019-03-17T04:10:29.671Z,8.77
2019-03-17T04:11:29.665Z,8.76
2019-03-17T04:12:29.689Z,8.80
2019-03-17T04:13:29.642Z,8.79
2019-03-17T04:14:29.626Z,8.84
2019-03-17T04:15:29.625Z,8.83
2019-03-17T04:16:29.607Z,8.80
2019-03-17T04:17:29.597Z,8.81
2019-03-17T04:18:29.583Z,8.86
2019-03-17T04:19:29.574Z,8.89
2019-03-17T04:20:29.570Z,8.81
2019-03-17T04:21:29.551Z,8.89
2019-03-17T04:22:29.542Z,8.87
2019-03-17T04:23:29.533Z,8.94
2019-03-17T04:24:29.520Z,8.92
2019-03-17T04:25:29.512Z,8.94
2019-03-17T04:26:29.499Z,8.96
2019-03-17T04:27:29.488Z,8.98
2019-03-17T04:28:29.477Z,8.95
2019-03-17T04:29:29.471Z,8.96
2019-03-17T04:30:29.455Z,8.89
2019-03-17T04:31:29.443Z,8.87
2019-03-17T04:32:29.433Z,8.95
2019-03-17T04:33:29.422Z,8.89
2019-03-17T04:34:29.412Z,8.87
2019-03-17T04:35:29.399Z,8.94
2019-03-17T04:36:39.595Z,8.98
2019-03-17T04:37:30.379Z,9.02
2019-03-17T04:38:29.369Z,8.99
2019-03-17T04:39:29.358Z,8.98
2019-03-17T04:40:29.350Z,9.08
2019-03-17T04:41:29.347Z,9.08
2019-03-17T04:42:29.329Z,9.08
2019-03-17T04:43:29.333Z,9.11
2019-03-17T04:44:29.305Z,9.05
2019-03-17T04:45:29.303Z,9.10
2019-03-17T04:46:29.284Z,9.13
2019-03-17T04:47:29.271Z,9.08
2019-03-17T04:48:29.261Z,9.14
2019-03-17T04:49:29.250Z,9.01
2019-03-17T04:50:29.240Z,9.08
2019-03-17T04:51:29.232Z,9.01
2019-03-17T04:52:29.219Z,9.08
2019-03-17T04:53:29.411Z,8.99
2019-03-17T04:54:29.198Z,9.14
2019-03-17T04:55:29.198Z,9.08
2019-03-17T04:56:29.176Z,9.02
2019-03-17T04:57:29.165Z,9.01
2019-03-17T04:58:29.159Z,9.05
2019-03-17T04:59:29.148Z,9.05
2019-03-17T05:00:29.135Z,9.10
2019-03-17T05:01:29.121Z,9.05
2019-03-17T05:02:29.110Z,9.10
2019-03-17T05:03:29.104Z,9.04
2019-03-17T05:04:29.096Z,9.01
2019-03-17T05:05:29.081Z,9.10
2019-03-17T05:06:29.070Z,9.18
2019-03-17T05:07:29.059Z,9.24
2019-03-17T05:08:29.048Z,9.10
2019-03-17T05:09:29.038Z,9.23
2019-03-17T05:10:29.037Z,9.24
2019-03-17T05:11:29.017Z,9.17
2019-03-17T05:12:29.003Z,9.17
2019-03-17T05:13:28.993Z,9.21
2019-03-17T05:14:28.985Z,9.13
2019-03-17T05:15:28.971Z,9.17
2019-03-17T05:16:28.969Z,9.24
2019-03-17T05:17:28.949Z,9.17
2019-03-17T05:18:28.945Z,9.31
2019-03-17T05:19:28.931Z,9.28
2019-03-17T05:20:28.917Z,9.21
2019-03-17T05:21:28.907Z,9.31
2019-03-17T05:22:28.896Z,9.35
2019-03-17T05:23:28.889Z,9.17
2019-03-17T05:24:28.878Z,9.23
2019-03-17T05:25:28.864Z,9.29
2019-03-17T05:26:28.853Z,9.21
2019-03-17T05:27:28.842Z,9.21
2019-03-17T05:28:28.834Z,9.33
2019-03-17T05:29:28.823Z,9.28
2019-03-17T05:30:28.810Z,9.17
2019-03-17T05:31:28.801Z,9.15
2019-03-17T05:32:28.790Z,9.20
2019-03-17T05:33:28.779Z,9.20
2019-03-17T05:34:28.768Z,9.15
2019-03-17T05:35:28.758Z,9.18
2019-03-17T05:36:28.748Z,9.31
2019-03-17T05:37:28.739Z,9.15
2019-03-17T05:38:28.727Z,9.26
2019-03-17T05:39:28.715Z,9.20
2019-03-17T05:40:28.703Z,9.14
2019-03-17T05:41:28.694Z,9.21
2019-03-17T05:42:28.683Z,9.18
2019-03-17T05:43:28.676Z,9.15
2019-03-17T05:44:28.663Z,9.24
2019-03-17T05:45:28.653Z,9.24
2019-03-17T05:46:28.647Z,9.13
2019-03-17T05:47:28.628Z,9.11
2019-03-17T05:48:28.618Z,9.02
2019-03-17T05:49:28.607Z,9.02
2019-03-17T05:50:28.600Z,9.08
2019-03-17T05:51:28.590Z,9.05
2019-03-17T05:52:28.576Z,9.08
2019-03-17T05:53:28.564Z,9.08
2019-03-17T05:54:28.552Z,9.11
2019-03-17T05:55:28.543Z,9.04
2019-03-17T05:56:28.532Z,9.08
2019-03-17T05:57:28.527Z,9.01
2019-03-17T05:58:28.512Z,8.99
2019-03-17T05:59:28.500Z,9.01
2019-03-17T06:00:28.492Z,8.96
2019-03-17T06:01:28.479Z,8.91
2019-03-17T06:02:28.468Z,8.91
2019-03-17T06:03:28.457Z,8.91
2019-03-17T06:04:28.448Z,8.80
2019-03-17T06:05:28.434Z,8.83
2019-03-17T06:06:28.425Z,8.77
2019-03-17T06:07:28.413Z,8.79
2019-03-17T06:08:28.406Z,8.80
2019-03-17T06:09:28.398Z,8.77
2019-03-17T06:10:28.381Z,8.84
2019-03-17T06:11:28.370Z,8.83
2019-03-17T06:12:28.360Z,8.83
2019-03-17T06:13:28.350Z,8.80
2019-03-17T06:14:28.339Z,8.80
2019-03-17T06:15:28.331Z,8.80
2019-03-17T06:16:28.317Z,8.80
2019-03-17T06:17:28.308Z,8.81
2019-03-17T06:18:28.306Z,8.80
2019-03-17T06:19:28.300Z,8.84
2019-03-17T06:20:28.279Z,8.84
2019-03-17T06:21:28.275Z,8.91
2019-03-17T06:22:28.253Z,8.92
2019-03-17T06:23:28.241Z,8.96
2019-03-17T06:24:28.231Z,8.94
2019-03-17T06:25:28.222Z,9.01
2019-03-17T06:26:28.218Z,8.99
2019-03-17T06:27:28.216Z,8.89
2019-03-17T06:28:28.189Z,8.94
2019-03-17T06:29:28.178Z,8.89
2019-03-17T06:30:28.168Z,9.01
2019-03-17T06:31:28.156Z,9.01
2019-03-17T06:32:28.151Z,9.02
2019-03-17T06:33:28.137Z,9.01
2019-03-17T06:34:28.125Z,8.98
2019-03-17T06:35:28.121Z,8.99
2019-03-17T06:36:28.106Z,8.99
2019-03-17T06:37:31.333Z,8.98
2019-03-17T06:38:28.087Z,9.05
2019-03-17T06:39:28.080Z,8.94
2019-03-17T06:40:28.061Z,9.01
2019-03-17T06:41:28.049Z,8.99
2019-03-17T06:42:28.042Z,8.98
2019-03-17T06:43:28.027Z,8.98
2019-03-17T06:44:28.019Z,8.99
2019-03-17T06:45:28.005Z,8.99
2019-03-17T06:46:27.997Z,9.08
2019-03-17T06:47:27.990Z,9.05
2019-03-17T06:48:27.973Z,9.02
2019-03-17T06:49:27.964Z,9.10
2019-03-17T06:50:27.963Z,9.14
2019-03-17T06:51:27.942Z,9.11
2019-03-17T06:52:27.931Z,8.99
2019-03-17T06:53:27.920Z,9.13
2019-03-17T06:54:27.911Z,9.14
2019-03-17T06:55:27.906Z,9.20
2019-03-17T06:56:27.891Z,9.20
2019-03-17T06:57:27.882Z,9.18
2019-03-17T06:58:27.867Z,9.20
2019-03-17T06:59:27.859Z,9.18
2019-03-17T07:00:27.846Z,9.31
2019-03-17T07:01:27.839Z,9.31
2019-03-17T07:02:27.823Z,9.28
2019-03-17T07:03:27.813Z,9.29
2019-03-17T07:04:27.818Z,9.40
2019-03-17T07:05:27.791Z,9.35
2019-03-17T07:06:27.787Z,9.36
2019-03-17T07:07:27.771Z,9.57
2019-03-17T07:08:27.760Z,9.53
2019-03-17T07:09:27.750Z,9.39
2019-03-17T07:10:27.740Z,9.39
2019-03-17T07:11:27.728Z,9.39
2019-03-17T07:12:27.720Z,9.39
2019-03-17T07:13:27.710Z,9.50
2019-03-17T07:14:27.695Z,9.40
2019-03-17T07:15:27.685Z,9.54
2019-03-17T07:16:27.678Z,9.58
2019-03-17T07:17:27.665Z,9.66
2019-03-17T07:18:27.673Z,9.66
2019-03-17T07:19:27.642Z,9.69
2019-03-17T07:20:27.633Z,9.78
2019-03-17T07:21:27.625Z,9.75
2019-03-17T07:22:27.690Z,9.75
2019-03-17T07:23:27.633Z,9.74
2019-03-17T07:24:27.596Z,9.75
2019-03-17T07:25:27.590Z,9.81
2019-03-17T07:26:27.570Z,9.76
2019-03-17T07:27:27.557Z,9.75
2019-03-17T07:28:27.546Z,9.89
2019-03-17T07:29:27.534Z,9.90
2019-03-17T07:30:27.527Z,10.05
2019-03-17T07:31:27.514Z,10.11
2019-03-17T07:32:27.503Z,10.22
2019-03-17T07:33:27.493Z,10.32
2019-03-17T07:34:27.491Z,10.38
2019-03-17T07:35:27.470Z,10.59
2019-03-17T07:36:27.463Z,10.51
2019-03-17T07:37:27.449Z,10.55
2019-03-17T07:38:27.436Z,10.55
2019-03-17T07:39:27.426Z,10.70
2019-03-17T07:40:27.428Z,10.96
2019-03-17T07:41:27.429Z,10.92
2019-03-17T07:42:27.413Z,10.81
2019-03-17T07:43:27.386Z,10.88
2019-03-17T07:44:27.413Z,11.11
2019-03-17T07:45:27.370Z,11.33
2019-03-17T07:46:27.359Z,11.54
2019-03-17T07:47:27.344Z,11.69
2019-03-17T07:48:27.332Z,11.65
2019-03-17T07:49:27.318Z,11.85
2019-03-17T07:50:27.311Z,11.65
2019-03-17T07:51:27.307Z,11.51
2019-03-17T07:52:27.290Z,11.57
2019-03-17T07:53:27.276Z,11.35
2019-03-17T07:54:27.272Z,11.42
2019-03-17T07:55:27.254Z,11.69
2019-03-17T07:56:27.245Z,12.07
2019-03-17T07:57:27.233Z,12.37
2019-03-17T07:58:27.225Z,12.35
2019-03-17T07:59:27.221Z,12.53
2019-03-17T08:00:32.075Z,12.82
2019-03-17T08:01:28.195Z,13.17
2019-03-17T08:02:27.179Z,13.55
2019-03-17T08:03:27.168Z,13.67
2019-03-17T08:04:27.158Z,13.84
2019-03-17T08:05:27.149Z,13.89
2019-03-17T08:06:27.137Z,14.09
2019-03-17T08:07:27.124Z,14.46
2019-03-17T08:08:27.162Z,14.45
2019-03-17T08:09:27.105Z,14.17
2019-03-17T08:10:27.092Z,14.07
2019-03-17T08:11:27.082Z,14.25
2019-03-17T08:12:27.071Z,14.12
2019-03-17T08:13:27.062Z,14.06
2019-03-17T08:14:27.057Z,14.02
2019-03-17T08:15:27.039Z,14.33
2019-03-17T08:16:27.095Z,14.52
2019-03-17T08:17:27.103Z,14.73
2019-03-17T08:18:27.011Z,14.98
2019-03-17T08:19:26.997Z,14.88
2019-03-17T08:20:26.998Z,14.77
2019-03-17T08:21:27.007Z,14.92
2019-03-17T08:22:26.967Z,15.01
2019-03-17T08:23:26.964Z,14.37
2019-03-17T08:24:26.942Z,14.40
2019-03-17T08:25:26.931Z,14.54
2019-03-17T08:26:26.923Z,15.23
2019-03-17T08:27:26.950Z,15.28
2019-03-17T08:28:26.900Z,15.23
2019-03-17T08:29:26.891Z,15.09
2019-03-17T08:30:26.880Z,15.47
2019-03-17T08:31:26.868Z,15.82
2019-03-17T08:32:26.856Z,15.47
2019-03-17T08:33:26.846Z,15.78
2019-03-17T08:34:26.835Z,15.92
2019-03-17T08:35:26.825Z,15.50
2019-03-17T08:36:26.817Z,15.20
2019-03-17T08:37:26.808Z,15.21
2019-03-17T08:38:26.793Z,15.41
2019-03-17T08:39:26.781Z,15.38
2019-03-17T08:40:26.776Z,15.28
2019-03-17T08:41:26.776Z,14.51
2019-03-17T08:42:26.754Z,14.50
2019-03-17T08:43:26.741Z,13.89
2019-03-17T08:44:26.733Z,14.17
2019-03-17T08:45:26.718Z,13.91
2019-03-17T08:46:26.712Z,14.18
2019-03-17T08:47:26.697Z,15.14
2019-03-17T08:48:26.686Z,15.44
2019-03-17T08:49:26.680Z,15.80
2019-03-17T08:50:26.666Z,14.95
2019-03-17T08:51:26.779Z,13.79
2019-03-17T08:52:26.648Z,13.19
2019-03-17T08:53:26.634Z,13.01
2019-03-17T08:54:26.625Z,13.01
2019-03-17T08:55:26.612Z,13.14
2019-03-17T08:56:26.602Z,13.48
2019-03-17T08:57:26.590Z,13.39
2019-03-17T08:58:26.578Z,13.17
2019-03-17T08:59:26.572Z,13.04
2019-03-17T09:00:26.563Z,12.95
2019-03-17T09:01:26.547Z,13.03
2019-03-17T09:02:26.537Z,12.96
2019-03-17T09:03:26.529Z,12.89
2019-03-17T09:04:26.526Z,12.89
2019-03-17T09:05:26.506Z,13.01
2019-03-17T09:06:26.492Z,12.87
2019-03-17T09:07:27.827Z,12.82
2019-03-17T09:08:34.783Z,12.92
2019-03-17T09:09:27.463Z,13.04
2019-03-17T09:10:26.451Z,13.01
2019-03-17T09:11:26.438Z,13.03
2019-03-17T09:12:26.427Z,13.28
2019-03-17T09:13:26.416Z,14.09
2019-03-17T09:14:26.406Z,14.45
2019-03-17T09:15:26.396Z,15.28
2019-03-17T09:16:26.389Z,15.67
2019-03-17T09:17:26.373Z,14.94
2019-03-17T09:18:27.083Z,14.02
2019-03-17T09:19:26.352Z,13.54
2019-03-17T09:20:26.345Z,13.25
2019-03-17T09:21:26.330Z,13.07
2019-03-17T09:22:26.328Z,14.12
2019-03-17T09:23:26.308Z,15.29
2019-03-17T09:24:26.298Z,15.13
2019-03-17T09:25:26.288Z,14.42
2019-03-17T09:26:26.277Z,14.12
2019-03-17T09:27:26.267Z,14.06
2019-03-17T09:28:26.254Z,14.24
2019-03-17T09:29:26.244Z,14.60
2019-03-17T09:30:26.237Z,15.32
2019-03-17T09:31:26.229Z,14.75
2019-03-17T09:32:26.213Z,14.17
2019-03-17T09:33:26.205Z,14.68
2019-03-17T09:34:26.192Z,15.44
2019-03-17T09:35:26.182Z,14.92
2019-03-17T09:36:26.178Z,15.86
2019-03-17T09:37:26.161Z,15.80
2019-03-17T09:38:26.155Z,16.01
2019-03-17T09:39:26.140Z,16.66
2019-03-17T09:40:26.151Z,16.78
2019-03-17T09:41:26.121Z,16.85
2019-03-17T09:42:26.107Z,15.25
2019-03-17T09:43:26.098Z,16.11
2019-03-17T09:44:26.088Z,15.86
2019-03-17T09:45:26.076Z,15.11
2019-03-17T09:46:26.065Z,14.70
2019-03-17T09:47:26.053Z,14.12
2019-03-17T09:48:26.044Z,15.44
2019-03-17T09:49:26.031Z,16.09
2019-03-17T09:50:26.023Z,17.00
2019-03-17T09:51:26.019Z,17.56
2019-03-17T09:52:26.000Z,16.61
2019-03-17T09:53:28.468Z,15.31
2019-03-17T09:54:25.983Z,14.52
2019-03-17T09:55:25.973Z,14.20
2019-03-17T09:56:25.966Z,14.02
2019-03-17T09:57:25.952Z,13.77
2019-03-17T09:58:25.937Z,13.77
2019-03-17T09:59:25.934Z,13.63
2019-03-17T10:00:25.919Z,13.64
2019-03-17T10:01:25.906Z,13.55
2019-03-17T10:02:25.905Z,13.48
2019-03-17T10:03:25.891Z,14.06
2019-03-17T10:04:25.873Z,13.92
2019-03-17T10:05:25.860Z,13.87
2019-03-17T10:06:25.855Z,13.96
2019-03-17T10:07:25.854Z,13.85
2019-03-17T10:08:25.832Z,13.66
2019-03-17T10:09:25.828Z,13.60
2019-03-17T10:10:25.809Z,13.57
2019-03-17T10:11:25.796Z,13.41
2019-03-17T10:12:25.784Z,13.66
2019-03-17T10:13:25.775Z,14.42
2019-03-17T10:14:25.764Z,15.31
2019-03-17T10:15:25.752Z,16.11
2019-03-17T10:16:25.775Z,16.02
2019-03-17T10:17:25.733Z,15.32
2019-03-17T10:18:25.721Z,14.84
2019-03-17T10:19:25.710Z,14.52
2019-03-17T10:20:25.708Z,14.32
2019-03-17T10:21:25.710Z,14.09
2019-03-17T10:22:25.744Z,14.14
2019-03-17T10:23:25.682Z,13.99
2019-03-17T10:24:25.663Z,13.77
2019-03-17T10:25:25.660Z,13.67
2019-03-17T10:26:25.643Z,13.59
2019-03-17T10:27:25.632Z,13.42
2019-03-17T10:28:25.612Z,13.33
2019-03-17T10:29:25.600Z,13.42
2019-03-17T10:30:25.590Z,13.45
2019-03-17T10:31:25.584Z,13.41
2019-03-17T10:32:25.575Z,13.33
2019-03-17T10:33:25.561Z,13.32
2019-03-17T10:34:25.548Z,13.30
2019-03-17T10:35:25.540Z,13.15
2019-03-17T10:36:25.525Z,13.14
2019-03-17T10:37:25.535Z,13.12
2019-03-17T10:38:25.508Z,13.12
2019-03-17T10:39:25.494Z,13.11
2019-03-17T10:40:25.482Z,13.17
2019-03-17T10:41:25.472Z,13.19
2019-03-17T10:42:25.462Z,13.15
2019-03-17T10:43:25.450Z,13.14
2019-03-17T10:44:25.447Z,13.15
2019-03-17T10:45:25.428Z,13.15
2019-03-17T10:46:25.420Z,13.14
2019-03-17T10:47:25.406Z,13.19
2019-03-17T10:48:25.397Z,13.12
2019-03-17T10:49:25.395Z,13.11
2019-03-17T10:50:25.394Z,13.15
2019-03-17T10:51:25.366Z,13.22
2019-03-17T10:52:25.354Z,13.26
2019-03-17T10:53:25.350Z,13.39
2019-03-17T10:54:25.338Z,13.33
2019-03-17T10:55:25.324Z,13.26
2019-03-17T10:56:25.328Z,13.26
2019-03-17T10:57:25.301Z,13.12
2019-03-17T10:58:25.289Z,13.14
2019-03-17T10:59:27.591Z,13.10
2019-03-17T11:00:25.270Z,13.15
2019-03-17T11:01:25.263Z,13.29
2019-03-17T11:02:25.247Z,13.44
2019-03-17T11:03:25.237Z,13.41
2019-03-17T11:04:25.226Z,13.60
2019-03-17T11:05:25.214Z,13.67
2019-03-17T11:06:25.206Z,13.75
2019-03-17T11:07:25.195Z,13.73
2019-03-17T11:08:25.188Z,13.77
2019-03-17T11:09:25.763Z,13.79
2019-03-17T11:10:25.162Z,13.75
2019-03-17T11:11:25.154Z,13.54
2019-03-17T11:12:25.214Z,13.54
2019-03-17T11:13:25.131Z,13.54
2019-03-17T11:14:25.121Z,13.49
2019-03-17T11:15:25.108Z,13.52
2019-03-17T11:16:25.098Z,13.49
2019-03-17T11:17:25.089Z,13.55
2019-03-17T11:18:25.077Z,13.42
2019-03-17T11:19:25.840Z,13.48
2019-03-17T11:20:25.056Z,13.39
2019-03-17T11:21:25.057Z,13.39
2019-03-17T11:22:25.103Z,13.51
2019-03-17T11:23:25.034Z,13.49
2019-03-17T11:24:25.023Z,13.42
2019-03-17T11:25:25.012Z,13.51
2019-03-17T11:26:25.000Z,13.51
2019-03-17T11:27:24.993Z,13.39
2019-03-17T11:28:24.990Z,13.36
2019-03-17T11:29:24.971Z,13.38
2019-03-17T11:30:24.957Z,13.20
2019-03-17T11:31:24.955Z,13.15
2019-03-17T11:32:24.931Z,13.14
2019-03-17T11:33:24.927Z,13.17
2019-03-17T11:34:24.911Z,13.32
2019-03-17T11:35:24.922Z,13.32
2019-03-17T11:36:24.890Z,13.32
2019-03-17T11:37:24.880Z,13.29
2019-03-17T11:38:24.867Z,13.22
2019-03-17T11:39:36.919Z,13.11
2019-03-17T11:40:25.844Z,13.17
2019-03-17T11:41:24.837Z,13.20
2019-03-17T11:42:24.826Z,13.17
2019-03-17T11:43:24.813Z,13.23
2019-03-17T11:44:24.809Z,13.23
2019-03-17T11:45:24.791Z,13.25
2019-03-17T11:46:24.784Z,13.23
2019-03-17T11:47:24.773Z,13.15
2019-03-17T11:48:24.760Z,13.04
2019-03-17T11:49:24.749Z,13.05
2019-03-17T11:50:24.733Z,13.03
2019-03-17T11:51:24.726Z,13.03
2019-03-17T11:52:24.716Z,13.01
2019-03-17T11:53:24.702Z,12.97
2019-03-17T11:54:24.695Z,12.90
2019-03-17T11:55:24.682Z,12.93
2019-03-17T11:56:24.670Z,12.89
2019-03-17T11:57:24.657Z,12.87
2019-03-17T11:58:24.647Z,12.96
2019-03-17T11:59:24.637Z,12.86
2019-03-17T12:00:24.630Z,12.85
2019-03-17T12:01:24.617Z,12.79
2019-03-17T12:02:26.737Z,12.83
2019-03-17T12:03:24.595Z,12.82
2019-03-17T12:04:24.583Z,12.83
2019-03-17T12:05:24.573Z,12.74
2019-03-17T12:06:24.583Z,12.78
2019-03-17T12:07:24.556Z,12.74
2019-03-17T12:08:24.551Z,12.83
2019-03-17T12:09:29.371Z,12.74
2019-03-17T12:10:25.518Z,12.75
2019-03-17T12:11:24.507Z,12.72
2019-03-17T12:12:24.497Z,12.74
2019-03-17T12:13:24.487Z,12.82
2019-03-17T12:14:24.478Z,12.85
2019-03-17T12:15:24.466Z,12.86
2019-03-17T12:16:24.466Z,12.87
2019-03-17T12:17:24.443Z,12.86
2019-03-17T12:18:24.434Z,12.86
2019-03-17T12:19:24.424Z,12.83
2019-03-17T12:20:24.412Z,12.83
2019-03-17T12:21:24.400Z,12.77
2019-03-17T12:22:24.401Z,12.68
2019-03-17T12:23:24.379Z,12.67
2019-03-17T12:24:24.369Z,12.65
2019-03-17T12:25:24.358Z,12.65
2019-03-17T12:26:24.367Z,12.59
2019-03-17T12:27:24.339Z,12.59
2019-03-17T12:28:24.328Z,12.59
2019-03-17T12:29:24.316Z,12.65
2019-03-17T12:30:24.305Z,12.59
2019-03-17T12:31:24.292Z,12.56
2019-03-17T12:32:24.282Z,12.53
2019-03-17T12:33:24.288Z,12.56
2019-03-17T12:34:28.513Z,12.50
2019-03-17T12:35:24.253Z,12.46
2019-03-17T12:36:24.238Z,12.59
2019-03-17T12:37:24.233Z,12.57
2019-03-17T12:38:24.217Z,12.47
2019-03-17T12:39:24.221Z,12.56
2019-03-17T12:40:24.197Z,12.45
2019-03-17T12:41:24.189Z,12.45
2019-03-17T12:42:24.174Z,12.49
2019-03-17T12:43:24.163Z,12.45
2019-03-17T12:44:24.154Z,12.47
2019-03-17T12:45:24.142Z,12.46
2019-03-17T12:46:24.132Z,12.45
2019-03-17T12:47:24.127Z,12.52
2019-03-17T12:48:24.112Z,12.39
2019-03-17T12:49:24.099Z,12.39
2019-03-17T12:50:24.090Z,12.52
2019-03-17T12:51:24.078Z,12.49
2019-03-17T12:52:24.067Z,12.42
2019-03-17T12:53:24.056Z,12.46
2019-03-17T12:54:24.046Z,12.42
2019-03-17T12:55:24.037Z,12.42
2019-03-17T12:56:24.025Z,12.49
2019-03-17T12:57:24.015Z,12.46
2019-03-17T12:58:24.002Z,12.45
2019-03-17T12:59:23.991Z,12.50
2019-03-17T13:00:23.986Z,12.56
2019-03-17T13:01:23.970Z,12.46
2019-03-17T13:02:23.960Z,12.41
2019-03-17T13:03:23.949Z,12.49
2019-03-17T13:04:23.939Z,12.46
2019-03-17T13:05:23.949Z,12.47
2019-03-17T13:06:23.916Z,12.46
2019-03-17T13:07:23.909Z,12.45